sensor_id;sensor_type;location;lat;lon;timestamp;pressure;altitude;pressure_sealevel;temperature;humidity
9969;BME280;5025;48.890;9.278;2022-12-07T00:01:32;98885.41;;;3.69;90.34
9969;BME280;5025;48.890;9.278;2022-12-07T00:04:00;98889.44;;;3.65;90.33
9969;BME280;5025;48.890;9.278;2022-12-07T00:06:36;98887.81;;;3.64;90.38
9969;BME280;5025;48.890;9.278;2022-12-07T00:09:04;98891.41;;;3.71;90.42
9969;BME280;5025;48.890;9.278;2022-12-07T00:11:29;98890.41;;;3.72;90.31
9969;BME280;5025;48.890;9.278;2022-12-07T00:13:57;98886.41;;;3.68;90.27
9969;BME280;5025;48.890;9.278;2022-12-07T00:16:25;98884.38;;;3.55;90.51
9969;BME280;5025;48.890;9.278;2022-12-07T00:18:51;98888.94;;;3.47;90.71
9969;BME280;5025;48.890;9.278;2022-12-07T00:21:33;98882.97;;;3.45;91.10
9969;BME280;5025;48.890;9.278;2022-12-07T00:23:59;98882.59;;;3.48;91.26
9969;BME280;5025;48.890;9.278;2022-12-07T00:26:27;98882.53;;;3.56;90.84
9969;BME280;5025;48.890;9.278;2022-12-07T00:28:55;98878.69;;;3.58;90.93
9969;BME280;5025;48.890;9.278;2022-12-07T00:31:22;98879.31;;;3.61;90.87
9969;BME280;5025;48.890;9.278;2022-12-07T00:33:48;98868.81;;;3.59;90.90
9969;BME280;5025;48.890;9.278;2022-12-07T00:36:16;98872.16;;;3.61;90.80
9969;BME280;5025;48.890;9.278;2022-12-07T00:38:42;98873.78;;;3.62;90.83
9969;BME280;5025;48.890;9.278;2022-12-07T00:41:11;98875.28;;;3.65;90.82
9969;BME280;5025;48.890;9.278;2022-12-07T00:43:36;98875.72;;;3.68;90.83
9969;BME280;5025;48.890;9.278;2022-12-07T00:46:02;98880.72;;;3.71;90.59
9969;BME280;5025;48.890;9.278;2022-12-07T00:48:27;98877.22;;;3.71;90.44
9969;BME280;5025;48.890;9.278;2022-12-07T00:50:53;98878.53;;;3.75;90.44
9969;BME280;5025;48.890;9.278;2022-12-07T00:53:18;98883.50;;;3.78;90.20
9969;BME280;5025;48.890;9.278;2022-12-07T00:55:44;98886.00;;;3.80;90.37
9969;BME280;5025;48.890;9.278;2022-12-07T00:58:10;98888.47;;;3.81;90.25
9969;BME280;5025;48.890;9.278;2022-12-07T01:00:37;98888.66;;;3.80;90.10
9969;BME280;5025;48.890;9.278;2022-12-07T01:03:04;98883.19;;;3.73;90.23
9969;BME280;5025;48.890;9.278;2022-12-07T01:05:29;98886.06;;;3.71;90.34
9969;BME280;5025;48.890;9.278;2022-12-07T01:07:55;98885.88;;;3.73;90.21
9969;BME280;5025;48.890;9.278;2022-12-07T01:10:20;98888.00;;;3.77;90.26
9969;BME280;5025;48.890;9.278;2022-12-07T01:12:45;98884.31;;;3.79;90.34
9969;BME280;5025;48.890;9.278;2022-12-07T01:15:11;98884.13;;;3.80;90.04
9969;BME280;5025;48.890;9.278;2022-12-07T01:17:36;98884.97;;;3.81;90.43
9969;BME280;5025;48.890;9.278;2022-12-07T01:20:02;98878.81;;;3.80;90.15
9969;BME280;5025;48.890;9.278;2022-12-07T01:22:28;98885.63;;;3.83;90.14
9969;BME280;5025;48.890;9.278;2022-12-07T01:24:53;98884.78;;;3.82;90.04
9969;BME280;5025;48.890;9.278;2022-12-07T01:27:18;98897.13;;;3.83;90.09
9969;BME280;5025;48.890;9.278;2022-12-07T01:29:43;98885.63;;;3.83;90.29
9969;BME280;5025;48.890;9.278;2022-12-07T01:32:09;98889.94;;;3.84;89.96
9969;BME280;5025;48.890;9.278;2022-12-07T01:34:35;98888.28;;;3.83;90.03
9969;BME280;5025;48.890;9.278;2022-12-07T01:37:00;98890.97;;;3.83;90.01
9969;BME280;5025;48.890;9.278;2022-12-07T01:39:25;98897.69;;;3.79;90.07
9969;BME280;5025;48.890;9.278;2022-12-07T01:41:52;98890.22;;;3.74;90.19
9969;BME280;5025;48.890;9.278;2022-12-07T01:46:48;98893.25;;;3.71;90.39
9969;BME280;5025;48.890;9.278;2022-12-07T01:49:41;98893.25;;;3.71;90.19
9969;BME280;5025;48.890;9.278;2022-12-07T01:52:18;98892.78;;;3.67;90.29
9969;BME280;5025;48.890;9.278;2022-12-07T01:54:46;98896.47;;;3.66;90.41
9969;BME280;5025;48.890;9.278;2022-12-07T01:57:14;98897.09;;;3.68;90.26
9969;BME280;5025;48.890;9.278;2022-12-07T01:59:42;98898.13;;;3.67;90.28
9969;BME280;5025;48.890;9.278;2022-12-07T02:02:15;98902.81;;;3.65;90.25
9969;BME280;5025;48.890;9.278;2022-12-07T02:04:43;98900.31;;;3.64;90.28
9969;BME280;5025;48.890;9.278;2022-12-07T02:07:09;98900.13;;;3.65;90.37
9969;BME280;5025;48.890;9.278;2022-12-07T02:09:34;98885.78;;;3.66;90.29
9969;BME280;5025;48.890;9.278;2022-12-07T02:11:59;98897.94;;;3.69;90.14
9969;BME280;5025;48.890;9.278;2022-12-07T02:14:25;98890.75;;;3.69;90.24
9969;BME280;5025;48.890;9.278;2022-12-07T02:17:25;98890.75;;;3.69;90.16
9969;BME280;5025;48.890;9.278;2022-12-07T02:26:02;98888.63;;;3.65;89.94
9969;BME280;5025;48.890;9.278;2022-12-07T02:28:35;98881.97;;;3.61;89.99
9969;BME280;5025;48.890;9.278;2022-12-07T02:31:07;98880.53;;;3.58;90.09
9969;BME280;5025;48.890;9.278;2022-12-07T02:33:39;98881.53;;;3.57;90.18
9969;BME280;5025;48.890;9.278;2022-12-07T02:36:12;98872.88;;;3.55;90.07
9969;BME280;5025;48.890;9.278;2022-12-07T02:38:54;98880.22;;;3.53;90.06
9969;BME280;5025;48.890;9.278;2022-12-07T02:41:32;98872.56;;;3.50;89.96
9969;BME280;5025;48.890;9.278;2022-12-07T02:44:01;98869.91;;;3.50;90.22
9969;BME280;5025;48.890;9.278;2022-12-07T02:46:30;98864.38;;;3.51;90.17
9969;BME280;5025;48.890;9.278;2022-12-07T02:48:57;98874.06;;;3.52;90.18
9969;BME280;5025;48.890;9.278;2022-12-07T02:51:25;98869.72;;;3.51;90.19
9969;BME280;5025;48.890;9.278;2022-12-07T02:53:50;98866.03;;;3.52;90.14
9969;BME280;5025;48.890;9.278;2022-12-07T03:02:30;98853.88;;;3.50;89.97
9969;BME280;5025;48.890;9.278;2022-12-07T03:05:20;98855.72;;;3.49;89.98
9969;BME280;5025;48.890;9.278;2022-12-07T03:13:04;98856.72;;;3.48;89.85
9969;BME280;5025;48.890;9.278;2022-12-07T03:18:02;98863.75;;;3.49;90.04
9969;BME280;5025;48.890;9.278;2022-12-07T03:20:29;98867.91;;;3.52;90.13
9969;BME280;5025;48.890;9.278;2022-12-07T03:22:57;98861.34;;;3.54;89.98
9969;BME280;5025;48.890;9.278;2022-12-07T03:25:24;98859.53;;;3.55;89.87
9969;BME280;5025;48.890;9.278;2022-12-07T03:28:01;98858.50;;;3.56;89.82
9969;BME280;5025;48.890;9.278;2022-12-07T03:30:42;98852.16;;;3.57;89.91
9969;BME280;5025;48.890;9.278;2022-12-07T03:33:25;98850.31;;;3.57;89.97
9969;BME280;5025;48.890;9.278;2022-12-07T03:36:01;98850.31;;;3.57;89.57
9969;BME280;5025;48.890;9.278;2022-12-07T03:38:38;98849.47;;;3.57;89.81
9969;BME280;5025;48.890;9.278;2022-12-07T03:41:17;98848.00;;;3.54;89.65
9969;BME280;5025;48.890;9.278;2022-12-07T03:43:44;98840.84;;;3.55;89.79
9969;BME280;5025;48.890;9.278;2022-12-07T03:48:56;98844.16;;;3.57;89.78
9969;BME280;5025;48.890;9.278;2022-12-07T03:51:30;98839.34;;;3.52;89.87
9969;BME280;5025;48.890;9.278;2022-12-07T03:54:05;98832.34;;;3.51;89.53
9969;BME280;5025;48.890;9.278;2022-12-07T03:56:34;98839.25;;;3.46;89.66
9969;BME280;5025;48.890;9.278;2022-12-07T03:58:59;98840.25;;;3.45;89.57
9969;BME280;5025;48.890;9.278;2022-12-07T04:01:25;98841.25;;;3.44;89.67
9969;BME280;5025;48.890;9.278;2022-12-07T04:03:50;98836.94;;;3.43;89.92
9969;BME280;5025;48.890;9.278;2022-12-07T04:06:15;98827.91;;;3.44;89.79
9969;BME280;5025;48.890;9.278;2022-12-07T04:08:41;98819.06;;;3.43;89.67
9969;BME280;5025;48.890;9.278;2022-12-07T04:11:06;98824.78;;;3.40;89.60
9969;BME280;5025;48.890;9.278;2022-12-07T04:13:31;98814.66;;;3.35;89.27
9969;BME280;5025;48.890;9.278;2022-12-07T04:16:16;98810.03;;;3.29;89.54
9969;BME280;5025;48.890;9.278;2022-12-07T04:18:42;98804.06;;;3.27;89.54
9969;BME280;5025;48.890;9.278;2022-12-07T04:21:07;98802.56;;;3.25;89.47
9969;BME280;5025;48.890;9.278;2022-12-07T04:23:32;98807.91;;;3.25;89.32
9969;BME280;5025;48.890;9.278;2022-12-07T04:25:58;98801.09;;;3.22;89.54
9969;BME280;5025;48.890;9.278;2022-12-07T04:28:23;98806.59;;;3.20;89.52
9969;BME280;5025;48.890;9.278;2022-12-07T04:30:48;98796.97;;;3.19;89.66
9969;BME280;5025;48.890;9.278;2022-12-07T04:33:13;98796.78;;;3.21;89.52
9969;BME280;5025;48.890;9.278;2022-12-07T04:35:39;98800.44;;;3.20;89.62
9969;BME280;5025;48.890;9.278;2022-12-07T04:38:04;98795.28;;;3.18;89.60
9969;BME280;5025;48.890;9.278;2022-12-07T04:40:29;98788.47;;;3.16;89.55
9969;BME280;5025;48.890;9.278;2022-12-07T04:42:54;98792.81;;;3.17;89.49
9969;BME280;5025;48.890;9.278;2022-12-07T04:45:20;98798.78;;;3.19;89.66
9969;BME280;5025;48.890;9.278;2022-12-07T04:47:45;98803.47;;;3.17;89.70
9969;BME280;5025;48.890;9.278;2022-12-07T04:50:10;98813.50;;;3.15;89.64
9969;BME280;5025;48.890;9.278;2022-12-07T04:52:36;98808.16;;;3.15;89.84
9969;BME280;5025;48.890;9.278;2022-12-07T04:55:01;98803.47;;;3.17;89.84
9969;BME280;5025;48.890;9.278;2022-12-07T04:57:26;98804.97;;;3.19;89.77
9969;BME280;5025;48.890;9.278;2022-12-07T04:59:52;98810.28;;;3.19;89.68
9969;BME280;5025;48.890;9.278;2022-12-07T05:02:17;98821.44;;;3.23;89.42
9969;BME280;5025;48.890;9.278;2022-12-07T05:04:42;98824.91;;;3.23;89.57
9969;BME280;5025;48.890;9.278;2022-12-07T05:07:07;98831.94;;;3.25;89.46
9969;BME280;5025;48.890;9.278;2022-12-07T05:09:33;98833.78;;;3.24;89.64
9969;BME280;5025;48.890;9.278;2022-12-07T05:11:58;98827.59;;;3.23;89.30
9969;BME280;5025;48.890;9.278;2022-12-07T05:14:23;98832.47;;;3.20;89.33
9969;BME280;5025;48.890;9.278;2022-12-07T05:16:50;98832.28;;;3.21;89.34
9969;BME280;5025;48.890;9.278;2022-12-07T05:19:16;98826.94;;;3.21;89.30
9969;BME280;5025;48.890;9.278;2022-12-07T05:21:42;98834.97;;;3.21;89.29
9969;BME280;5025;48.890;9.278;2022-12-07T05:24:10;98831.09;;;3.24;89.09
9969;BME280;5025;48.890;9.278;2022-12-07T05:26:36;98831.47;;;3.21;89.06
9969;BME280;5025;48.890;9.278;2022-12-07T05:29:01;98825.47;;;3.19;89.15
9969;BME280;5025;48.890;9.278;2022-12-07T05:31:27;98826.31;;;3.19;89.23
9969;BME280;5025;48.890;9.278;2022-12-07T05:33:53;98832.66;;;3.18;89.05
9969;BME280;5025;48.890;9.278;2022-12-07T05:36:18;98830.78;;;3.19;89.10
9969;BME280;5025;48.890;9.278;2022-12-07T05:38:44;98817.00;;;3.15;88.98
9969;BME280;5025;48.890;9.278;2022-12-07T05:41:12;98817.19;;;3.14;88.93
9969;BME280;5025;48.890;9.278;2022-12-07T05:43:59;98823.69;;;3.11;89.04
9969;BME280;5025;48.890;9.278;2022-12-07T05:46:25;98829.88;;;3.12;88.97
9969;BME280;5025;48.890;9.278;2022-12-07T05:48:50;98824.91;;;3.09;88.95
9969;BME280;5025;48.890;9.278;2022-12-07T05:51:15;98831.06;;;3.09;88.96
9969;BME280;5025;48.890;9.278;2022-12-07T05:53:41;98827.56;;;3.09;89.00
9969;BME280;5025;48.890;9.278;2022-12-07T05:56:06;98825.72;;;3.09;89.04
9969;BME280;5025;48.890;9.278;2022-12-07T05:58:31;98824.06;;;3.08;89.24
9969;BME280;5025;48.890;9.278;2022-12-07T06:01:15;98828.22;;;3.11;89.08
9969;BME280;5025;48.890;9.278;2022-12-07T06:03:41;98826.53;;;3.10;89.22
9969;BME280;5025;48.890;9.278;2022-12-07T06:06:06;98826.19;;;3.13;88.99
9969;BME280;5025;48.890;9.278;2022-12-07T06:08:31;98828.84;;;3.13;88.98
9969;BME280;5025;48.890;9.278;2022-12-07T06:10:57;98828.66;;;3.14;89.23
9969;BME280;5025;48.890;9.278;2022-12-07T06:13:40;98824.53;;;3.12;88.85
9969;BME280;5025;48.890;9.278;2022-12-07T06:16:06;98818.25;;;3.04;88.89
9969;BME280;5025;48.890;9.278;2022-12-07T06:18:32;98824.75;;;3.02;89.11
9969;BME280;5025;48.890;9.278;2022-12-07T06:20:57;98823.94;;;3.01;89.12
9969;BME280;5025;48.890;9.278;2022-12-07T06:23:23;98816.94;;;3.00;89.16
9969;BME280;5025;48.890;9.278;2022-12-07T06:25:48;98816.31;;;2.98;88.67
9969;BME280;5025;48.890;9.278;2022-12-07T06:28:13;98819.59;;;3.00;89.16
9969;BME280;5025;48.890;9.278;2022-12-07T06:30:39;98832.94;;;3.00;89.24
9969;BME280;5025;48.890;9.278;2022-12-07T06:33:04;98841.63;;;3.02;89.19
9969;BME280;5025;48.890;9.278;2022-12-07T06:35:29;98839.78;;;3.03;89.07
9969;BME280;5025;48.890;9.278;2022-12-07T06:37:57;98837.56;;;3.07;89.14
9969;BME280;5025;48.890;9.278;2022-12-07T06:40:22;98834.91;;;3.07;89.30
9969;BME280;5025;48.890;9.278;2022-12-07T06:42:47;98829.38;;;3.08;89.11
9969;BME280;5025;48.890;9.278;2022-12-07T06:45:12;98834.72;;;3.08;89.21
9969;BME280;5025;48.890;9.278;2022-12-07T06:47:38;98835.75;;;3.07;89.18
9969;BME280;5025;48.890;9.278;2022-12-07T06:50:04;98845.56;;;3.07;89.17
9969;BME280;5025;48.890;9.278;2022-12-07T06:52:30;98843.94;;;3.05;89.18
9969;BME280;5025;48.890;9.278;2022-12-07T06:54:56;98842.09;;;3.06;89.36
9969;BME280;5025;48.890;9.278;2022-12-07T06:57:21;98843.09;;;3.05;89.12
9969;BME280;5025;48.890;9.278;2022-12-07T06:59:47;98839.25;;;3.08;89.17
9969;BME280;5025;48.890;9.278;2022-12-07T07:02:12;98841.91;;;3.08;89.26
9969;BME280;5025;48.890;9.278;2022-12-07T07:04:38;98844.22;;;3.11;89.16
9969;BME280;5025;48.890;9.278;2022-12-07T07:07:03;98847.53;;;3.13;89.02
9969;BME280;5025;48.890;9.278;2022-12-07T07:09:28;98844.03;;;3.12;89.11
9969;BME280;5025;48.890;9.278;2022-12-07T07:11:54;98844.84;;;3.13;89.09
9969;BME280;5025;48.890;9.278;2022-12-07T07:14:19;98844.22;;;3.11;88.99
9969;BME280;5025;48.890;9.278;2022-12-07T07:16:46;98846.88;;;3.11;89.12
9969;BME280;5025;48.890;9.278;2022-12-07T07:19:11;98847.69;;;3.11;89.24
9969;BME280;5025;48.890;9.278;2022-12-07T07:21:36;98853.88;;;3.12;89.13
9969;BME280;5025;48.890;9.278;2022-12-07T07:24:02;98853.72;;;3.13;89.05
9969;BME280;5025;48.890;9.278;2022-12-07T07:26:27;98845.53;;;3.15;88.97
9969;BME280;5025;48.890;9.278;2022-12-07T07:28:52;98853.72;;;3.13;88.85
9969;BME280;5025;48.890;9.278;2022-12-07T07:31:18;98849.56;;;3.11;88.87
9969;BME280;5025;48.890;9.278;2022-12-07T07:33:45;98854.25;;;3.09;88.95
9969;BME280;5025;48.890;9.278;2022-12-07T07:36:11;98849.91;;;3.08;89.11
9969;BME280;5025;48.890;9.278;2022-12-07T07:38:36;98855.59;;;3.04;89.04
9969;BME280;5025;48.890;9.278;2022-12-07T07:41:02;98857.28;;;3.05;89.14
9969;BME280;5025;48.890;9.278;2022-12-07T07:43:27;98865.91;;;3.08;89.06
9969;BME280;5025;48.890;9.278;2022-12-07T07:45:52;98867.59;;;3.09;88.88
9969;BME280;5025;48.890;9.278;2022-12-07T07:48:18;98867.41;;;3.10;88.80
9969;BME280;5025;48.890;9.278;2022-12-07T07:50:43;98862.91;;;3.11;88.65
9969;BME280;5025;48.890;9.278;2022-12-07T07:53:08;98861.22;;;3.10;88.70
9969;BME280;5025;48.890;9.278;2022-12-07T07:55:34;98865.75;;;3.09;88.61
9969;BME280;5025;48.890;9.278;2022-12-07T07:57:59;98872.94;;;3.09;88.63
9969;BME280;5025;48.890;9.278;2022-12-07T08:00:24;98875.41;;;3.10;88.55
9969;BME280;5025;48.890;9.278;2022-12-07T08:02:49;98871.06;;;3.09;88.56
9969;BME280;5025;48.890;9.278;2022-12-07T08:05:15;98871.91;;;3.10;88.56
9969;BME280;5025;48.890;9.278;2022-12-07T08:07:41;98867.22;;;3.12;88.48
9969;BME280;5025;48.890;9.278;2022-12-07T08:10:07;98874.88;;;3.15;88.37
9969;BME280;5025;48.890;9.278;2022-12-07T08:12:38;98876.34;;;3.17;88.25
9969;BME280;5025;48.890;9.278;2022-12-07T08:15:25;98865.66;;;3.17;88.32
9969;BME280;5025;48.890;9.278;2022-12-07T08:17:50;98870.81;;;3.19;88.20
9969;BME280;5025;48.890;9.278;2022-12-07T08:20:16;98877.84;;;3.20;88.00
9969;BME280;5025;48.890;9.278;2022-12-07T08:22:41;98867.97;;;3.20;87.94
9969;BME280;5025;48.890;9.278;2022-12-07T08:25:07;98874.16;;;3.21;87.80
9969;BME280;5025;48.890;9.278;2022-12-07T08:27:32;98866.81;;;3.23;87.74
9969;BME280;5025;48.890;9.278;2022-12-07T08:29:57;98883.81;;;3.22;87.84
9969;BME280;5025;48.890;9.278;2022-12-07T08:32:23;98874.63;;;3.25;87.65
9969;BME280;5025;48.890;9.278;2022-12-07T08:34:48;98882.28;;;3.28;87.88
9969;BME280;5025;48.890;9.278;2022-12-07T08:37:14;98885.59;;;3.30;87.52
9969;BME280;5025;48.890;9.278;2022-12-07T08:39:39;98875.94;;;3.29;87.55
9969;BME280;5025;48.890;9.278;2022-12-07T08:42:04;98878.44;;;3.30;87.33
9969;BME280;5025;48.890;9.278;2022-12-07T08:44:30;98877.41;;;3.31;87.47
9969;BME280;5025;48.890;9.278;2022-12-07T08:46:58;98879.25;;;3.31;87.33
9969;BME280;5025;48.890;9.278;2022-12-07T08:49:28;98880.06;;;3.31;87.29
9969;BME280;5025;48.890;9.278;2022-12-07T08:51:56;98875.41;;;3.33;87.14
9969;BME280;5025;48.890;9.278;2022-12-07T08:54:22;98878.88;;;3.34;87.08
9969;BME280;5025;48.890;9.278;2022-12-07T08:56:47;98872.56;;;3.35;87.20
9969;BME280;5025;48.890;9.278;2022-12-07T08:59:17;98881.03;;;3.38;87.17
9969;BME280;5025;48.890;9.278;2022-12-07T09:01:42;98871.66;;;3.43;86.88
9969;BME280;5025;48.890;9.278;2022-12-07T09:04:08;98883.59;;;3.47;86.67
9969;BME280;5025;48.890;9.278;2022-12-07T09:06:33;98879.13;;;3.47;86.69
9969;BME280;5025;48.890;9.278;2022-12-07T09:08:59;98878.94;;;3.49;86.68
9969;BME280;5025;48.890;9.278;2022-12-07T09:11:26;98874.88;;;3.53;86.51
9969;BME280;5025;48.890;9.278;2022-12-07T09:13:51;98884.91;;;3.51;86.33
9969;BME280;5025;48.890;9.278;2022-12-07T09:16:17;98872.94;;;3.47;86.15
9969;BME280;5025;48.890;9.278;2022-12-07T09:18:42;98878.56;;;3.52;86.04
9969;BME280;5025;48.890;9.278;2022-12-07T09:21:07;98869.91;;;3.50;85.58
9969;BME280;5025;48.890;9.278;2022-12-07T09:23:33;98877.25;;;3.48;85.55
9969;BME280;5025;48.890;9.278;2022-12-07T09:26:03;98873.09;;;3.45;84.85
9969;BME280;5025;48.890;9.278;2022-12-07T09:28:30;98874.78;;;3.46;84.49
9969;BME280;5025;48.890;9.278;2022-12-07T09:30:56;98872.75;;;3.48;84.14
9969;BME280;5025;48.890;9.278;2022-12-07T09:33:21;98884.75;;;3.52;83.81
9969;BME280;5025;48.890;9.278;2022-12-07T09:35:48;98882.88;;;3.53;83.51
9969;BME280;5025;48.890;9.278;2022-12-07T09:38:14;98878.50;;;3.60;83.03
9969;BME280;5025;48.890;9.278;2022-12-07T09:40:40;98875.63;;;3.62;82.90
9969;BME280;5025;48.890;9.278;2022-12-07T09:43:13;98876.47;;;3.62;82.70
9969;BME280;5025;48.890;9.278;2022-12-07T09:45:40;98875.81;;;3.60;82.51
9969;BME280;5025;48.890;9.278;2022-12-07T09:48:13;98876.19;;;3.57;81.95
9969;BME280;5025;48.890;9.278;2022-12-07T09:50:41;98866.41;;;3.49;81.43
9969;BME280;5025;48.890;9.278;2022-12-07T09:53:15;98870.47;;;3.60;81.06
9969;BME280;5025;48.890;9.278;2022-12-07T09:55:42;98862.94;;;3.64;80.67
9969;BME280;5025;48.890;9.278;2022-12-07T09:58:19;98859.06;;;3.66;80.36
9969;BME280;5025;48.890;9.278;2022-12-07T10:00:45;98856.41;;;3.66;80.07
9969;BME280;5025;48.890;9.278;2022-12-07T10:03:11;98860.75;;;3.67;79.68
9969;BME280;5025;48.890;9.278;2022-12-07T10:05:44;98859.97;;;3.58;78.46
9969;BME280;5025;48.890;9.278;2022-12-07T10:08:11;98852.50;;;3.54;77.91
9969;BME280;5025;48.890;9.278;2022-12-07T10:10:37;98857.13;;;3.60;77.71
9969;BME280;5025;48.890;9.278;2022-12-07T10:13:06;98849.22;;;3.67;77.63
9969;BME280;5025;48.890;9.278;2022-12-07T10:16:26;98840.66;;;3.56;77.00
9969;BME280;5025;48.890;9.278;2022-12-07T10:18:39;98840.84;;;3.55;77.03
9969;BME280;5025;48.890;9.278;2022-12-07T10:21:19;98847.00;;;3.55;76.96
9969;BME280;5025;48.890;9.278;2022-12-07T10:24:03;98843.50;;;3.55;76.90
9969;BME280;5025;48.890;9.278;2022-12-07T10:26:33;98836.13;;;3.57;76.80
9969;BME280;5025;48.890;9.278;2022-12-07T10:31:45;98837.63;;;3.74;76.62
9969;BME280;5025;48.890;9.278;2022-12-07T10:36:46;98832.16;;;3.53;76.84
9969;BME280;5025;48.890;9.278;2022-12-07T10:39:18;98835.13;;;3.58;77.16
9969;BME280;5025;48.890;9.278;2022-12-07T10:41:55;98835.50;;;3.55;77.57
9969;BME280;5025;48.890;9.278;2022-12-07T10:44:30;98835.41;;;3.63;77.65
9969;BME280;5025;48.890;9.278;2022-12-07T10:47:32;98836.78;;;3.59;78.53
9969;BME280;5025;48.890;9.278;2022-12-07T10:55:56;98818.47;;;3.71;79.59
9969;BME280;5025;48.890;9.278;2022-12-07T11:01:18;98822.63;;;3.73;80.14
9969;BME280;5025;48.890;9.278;2022-12-07T11:09:05;98813.03;;;3.64;81.33
9969;BME280;5025;48.890;9.278;2022-12-07T11:18:08;98811.28;;;3.56;81.73
9969;BME280;5025;48.890;9.278;2022-12-07T11:20:16;98808.50;;;3.65;81.61
9969;BME280;5025;48.890;9.278;2022-12-07T11:22:54;98807.69;;;3.64;81.45
9969;BME280;5025;48.890;9.278;2022-12-07T11:31:13;98794.78;;;3.53;82.46
9969;BME280;5025;48.890;9.278;2022-12-07T11:33:46;98795.72;;;3.60;82.63
9969;BME280;5025;48.890;9.278;2022-12-07T11:36:33;98792.59;;;3.56;82.74
9969;BME280;5025;48.890;9.278;2022-12-07T11:39:10;98793.41;;;3.57;82.80
9969;BME280;5025;48.890;9.278;2022-12-07T11:41:41;98784.94;;;3.38;82.61
9969;BME280;5025;48.890;9.278;2022-12-07T11:46:59;98786.84;;;3.30;83.31
9969;BME280;5025;48.890;9.278;2022-12-07T11:49:37;98785.75;;;3.24;83.83
9969;BME280;5025;48.890;9.278;2022-12-07T11:52:13;98780.84;;;3.28;83.91
9969;BME280;5025;48.890;9.278;2022-12-07T11:54:43;98771.94;;;3.35;83.98
9969;BME280;5025;48.890;9.278;2022-12-07T11:57:17;98773.97;;;3.33;83.79
9969;BME280;5025;48.890;9.278;2022-12-07T12:00:02;98775.06;;;3.24;83.79
9969;BME280;5025;48.890;9.278;2022-12-07T12:02:34;98775.88;;;3.25;83.79
9969;BME280;5025;48.890;9.278;2022-12-07T12:07:39;98766.75;;;3.19;83.93
9969;BME280;5025;48.890;9.278;2022-12-07T12:10:16;98760.09;;;3.38;83.77
9969;BME280;5025;48.890;9.278;2022-12-07T12:12:54;98755.94;;;3.35;83.66
9969;BME280;5025;48.890;9.278;2022-12-07T12:15:42;98756.88;;;3.43;83.62
9969;BME280;5025;48.890;9.278;2022-12-07T12:20:50;98754.09;;;3.51;83.17
9969;BME280;5025;48.890;9.278;2022-12-07T12:23:24;98747.94;;;3.50;83.21
9969;BME280;5025;48.890;9.278;2022-12-07T12:25:56;98754.91;;;3.51;83.34
9969;BME280;5025;48.890;9.278;2022-12-07T12:31:31;98747.19;;;3.41;83.78
9969;BME280;5025;48.890;9.278;2022-12-07T12:34:00;98746.06;;;3.36;83.80
9969;BME280;5025;48.890;9.278;2022-12-07T12:46:58;98746.19;;;3.43;83.04
9969;BME280;5025;48.890;9.278;2022-12-07T12:54:37;98740.94;;;3.49;83.04
9969;BME280;5025;48.890;9.278;2022-12-07T13:08:02;98723.06;;;3.50;83.02
9969;BME280;5025;48.890;9.278;2022-12-07T13:10:37;98723.34;;;3.55;83.34
9969;BME280;5025;48.890;9.278;2022-12-07T13:20:49;98712.69;;;3.55;83.00
9969;BME280;5025;48.890;9.278;2022-12-07T13:23:18;98706.97;;;3.58;83.08
9969;BME280;5025;48.890;9.278;2022-12-07T13:25:49;98708.78;;;3.72;82.73
9969;BME280;5025;48.890;9.278;2022-12-07T13:28:18;98704.63;;;3.85;82.33
9969;BME280;5025;48.890;9.278;2022-12-07T13:30:58;98703.22;;;3.89;82.14
9969;BME280;5025;48.890;9.278;2022-12-07T13:33:27;98702.69;;;3.79;82.26
9969;BME280;5025;48.890;9.278;2022-12-07T13:35:54;98705.47;;;3.70;82.59
9969;BME280;5025;48.890;9.278;2022-12-07T13:38:31;98701.41;;;3.74;82.60
9969;BME280;5025;48.890;9.278;2022-12-07T13:46:34;98698.66;;;3.68;83.03
9969;BME280;5025;48.890;9.278;2022-12-07T13:49:16;98702.81;;;3.70;83.06
9969;BME280;5025;48.890;9.278;2022-12-07T13:51:42;98702.88;;;3.62;83.15
9969;BME280;5025;48.890;9.278;2022-12-07T13:54:12;98697.28;;;3.57;83.13
9969;BME280;5025;48.890;9.278;2022-12-07T13:56:38;98691.22;;;3.63;83.16
9969;BME280;5025;48.890;9.278;2022-12-07T13:59:19;98689.47;;;3.70;82.92
9969;BME280;5025;48.890;9.278;2022-12-07T14:01:47;98689.81;;;3.67;83.01
9969;BME280;5025;48.890;9.278;2022-12-07T14:04:17;98697.91;;;3.74;82.85
9969;BME280;5025;48.890;9.278;2022-12-07T14:06:52;98700.28;;;3.84;82.65
9969;BME280;5025;48.890;9.278;2022-12-07T14:09:20;98693.69;;;3.80;82.62
9969;BME280;5025;48.890;9.278;2022-12-07T14:11:48;98700.19;;;3.92;82.48
9969;BME280;5025;48.890;9.278;2022-12-07T14:14:20;98698.16;;;3.94;82.36
9969;BME280;5025;48.890;9.278;2022-12-07T14:16:56;98702.56;;;4.02;82.29
9969;BME280;5025;48.890;9.278;2022-12-07T14:22:08;98700.94;;;4.07;81.91
9969;BME280;5025;48.890;9.278;2022-12-07T14:24:43;98693.06;;;3.99;81.87
9969;BME280;5025;48.890;9.278;2022-12-07T14:27:21;98695.09;;;3.97;81.77
9969;BME280;5025;48.890;9.278;2022-12-07T14:29:47;98692.94;;;3.86;81.89
9969;BME280;5025;48.890;9.278;2022-12-07T14:32:20;98699.91;;;3.87;82.21
9969;BME280;5025;48.890;9.278;2022-12-07T14:35:11;98697.28;;;3.72;82.40
9969;BME280;5025;48.890;9.278;2022-12-07T14:37:38;98694.69;;;3.79;82.53
9969;BME280;5025;48.890;9.278;2022-12-07T14:40:04;98686.66;;;3.79;82.50
9969;BME280;5025;48.890;9.278;2022-12-07T14:42:30;98685.91;;;3.85;82.36
9969;BME280;5025;48.890;9.278;2022-12-07T14:44:57;98692.81;;;3.79;82.13
9969;BME280;5025;48.890;9.278;2022-12-07T14:47:23;98685.56;;;3.73;82.23
9969;BME280;5025;48.890;9.278;2022-12-07T14:49:49;98695.31;;;3.81;82.02
9969;BME280;5025;48.890;9.278;2022-12-07T14:52:18;98691.63;;;3.82;82.01
9969;BME280;5025;48.890;9.278;2022-12-07T14:54:45;98694.66;;;3.93;81.84
9969;BME280;5025;48.890;9.278;2022-12-07T14:57:11;98689.03;;;3.88;81.82
9969;BME280;5025;48.890;9.278;2022-12-07T14:59:36;98693.31;;;3.83;81.96
9969;BME280;5025;48.890;9.278;2022-12-07T15:02:02;98698.09;;;3.72;82.12
9969;BME280;5025;48.890;9.278;2022-12-07T15:04:27;98696.53;;;3.63;82.30
9969;BME280;5025;48.890;9.278;2022-12-07T15:07:02;98699.22;;;3.63;82.67
9969;BME280;5025;48.890;9.278;2022-12-07T15:09:28;98701.78;;;3.71;82.52
9969;BME280;5025;48.890;9.278;2022-12-07T15:11:53;98699.22;;;3.63;82.46
9969;BME280;5025;48.890;9.278;2022-12-07T15:14:18;98697.47;;;3.55;82.78
9969;BME280;5025;48.890;9.278;2022-12-07T15:16:44;98698.22;;;3.49;83.09
9969;BME280;5025;48.890;9.278;2022-12-07T15:19:18;98696.66;;;3.55;83.21
9969;BME280;5025;48.890;9.278;2022-12-07T15:21:45;98701.44;;;3.45;83.42
9969;BME280;5025;48.890;9.278;2022-12-07T15:24:11;98706.78;;;3.45;83.92
9969;BME280;5025;48.890;9.278;2022-12-07T15:26:38;98710.44;;;3.44;83.77
9969;BME280;5025;48.890;9.278;2022-12-07T15:29:05;98703.09;;;3.46;84.18
9969;BME280;5025;48.890;9.278;2022-12-07T15:31:32;98712.94;;;3.45;83.63